sensor_id;sensor_type;location;lat;lon;timestamp;P1;durP1;ratioP1;P2;durP2;ratioP2
23531;SDS011;11943;52.270;20.978;2023-07-20T00:01:15;4.85;;;2.40;;
23531;SDS011;11943;52.270;20.978;2023-07-20T00:03:41;10.60;;;2.90;;
23531;SDS011;11943;52.270;20.978;2023-07-20T00:06:06;5.05;;;2.78;;
23531;SDS011;11943;52.270;20.978;2023-07-20T00:08:32;6.07;;;2.80;;
23531;SDS011;11943;52.270;20.978;2023-07-20T00:10:58;5.18;;;2.72;;
23531;SDS011;11943;52.270;20.978;2023-07-20T00:13:24;7.18;;;2.83;;
23531;SDS011;11943;52.270;20.978;2023-07-20T00:15:50;8.52;;;3.47;;
23531;SDS011;11943;52.270;20.978;2023-07-20T00:18:17;4.95;;;2.90;;
23531;SDS011;11943;52.270;20.978;2023-07-20T00:20:42;4.32;;;2.58;;
23531;SDS011;11943;52.270;20.978;2023-07-20T00:23:08;3.47;;;2.55;;
23531;SDS011;11943;52.270;20.978;2023-07-20T00:25:34;7.82;;;2.72;;
23531;SDS011;11943;52.270;20.978;2023-07-20T00:28:00;4.53;;;2.85;;
23531;SDS011;11943;52.270;20.978;2023-07-20T00:30:26;7.63;;;3.28;;
23531;SDS011;11943;52.270;20.978;2023-07-20T00:32:52;7.32;;;2.90;;
23531;SDS011;11943;52.270;20.978;2023-07-20T00:35:17;4.65;;;2.80;;
23531;SDS011;11943;52.270;20.978;2023-07-20T00:37:43;10.40;;;2.63;;
23531;SDS011;11943;52.270;20.978;2023-07-20T00:40:09;6.80;;;2.67;;
23531;SDS011;11943;52.270;20.978;2023-07-20T00:42:34;4.97;;;2.65;;
23531;SDS011;11943;52.270;20.978;2023-07-20T00:45:00;7.85;;;3.47;;
23531;SDS011;11943;52.270;20.978;2023-07-20T00:47:26;5.10;;;3.35;;
23531;SDS011;11943;52.270;20.978;2023-07-20T00:49:52;5.13;;;2.45;;
23531;SDS011;11943;52.270;20.978;2023-07-20T00:52:20;5.33;;;3.10;;
23531;SDS011;11943;52.270;20.978;2023-07-20T00:54:47;6.05;;;2.38;;
23531;SDS011;11943;52.270;20.978;2023-07-20T00:57:14;7.68;;;3.10;;
23531;SDS011;11943;52.270;20.978;2023-07-20T00:59:40;5.22;;;3.10;;
23531;SDS011;11943;52.270;20.978;2023-07-20T01:02:06;3.55;;;2.92;;
23531;SDS011;11943;52.270;20.978;2023-07-20T01:04:32;3.90;;;2.90;;
23531;SDS011;11943;52.270;20.978;2023-07-20T01:12:08;8.20;;;3.10;;
23531;SDS011;11943;52.270;20.978;2023-07-20T01:14:40;3.70;;;2.65;;
23531;SDS011;11943;52.270;20.978;2023-07-20T01:17:06;6.72;;;2.70;;
23531;SDS011;11943;52.270;20.978;2023-07-20T01:19:32;8.05;;;3.30;;
23531;SDS011;11943;52.270;20.978;2023-07-20T01:24:50;3.50;;;2.90;;
23531;SDS011;11943;52.270;20.978;2023-07-20T01:30:16;5.35;;;2.92;;
23531;SDS011;11943;52.270;20.978;2023-07-20T01:33:05;4.40;;;2.88;;
23531;SDS011;11943;52.270;20.978;2023-07-20T01:35:32;7.25;;;3.38;;
23531;SDS011;11943;52.270;20.978;2023-07-20T01:37:59;5.47;;;3.30;;
23531;SDS011;11943;52.270;20.978;2023-07-20T01:40:26;5.43;;;3.00;;
23531;SDS011;11943;52.270;20.978;2023-07-20T01:42:52;5.47;;;3.40;;
23531;SDS011;11943;52.270;20.978;2023-07-20T01:45:18;4.18;;;2.85;;
23531;SDS011;11943;52.270;20.978;2023-07-20T01:47:44;5.32;;;3.08;;
23531;SDS011;11943;52.270;20.978;2023-07-20T01:50:10;4.07;;;2.92;;
23531;SDS011;11943;52.270;20.978;2023-07-20T01:52:35;8.05;;;3.25;;
23531;SDS011;11943;52.270;20.978;2023-07-20T01:55:01;4.22;;;3.10;;
23531;SDS011;11943;52.270;20.978;2023-07-20T01:57:27;7.57;;;3.50;;
23531;SDS011;11943;52.270;20.978;2023-07-20T01:59:52;6.25;;;3.10;;
23531;SDS011;11943;52.270;20.978;2023-07-20T02:02:18;5.15;;;2.70;;
23531;SDS011;11943;52.270;20.978;2023-07-20T02:04:45;5.43;;;3.20;;
23531;SDS011;11943;52.270;20.978;2023-07-20T02:07:11;3.88;;;2.90;;
23531;SDS011;11943;52.270;20.978;2023-07-20T02:09:37;5.45;;;2.97;;
23531;SDS011;11943;52.270;20.978;2023-07-20T02:12:02;4.68;;;3.20;;
23531;SDS011;11943;52.270;20.978;2023-07-20T02:14:28;7.07;;;3.00;;
23531;SDS011;11943;52.270;20.978;2023-07-20T02:16:53;4.20;;;2.80;;
23531;SDS011;11943;52.270;20.978;2023-07-20T02:19:24;8.00;;;3.00;;
23531;SDS011;11943;52.270;20.978;2023-07-20T02:21:51;5.30;;;3.17;;
23531;SDS011;11943;52.270;20.978;2023-07-20T02:24:16;5.45;;;3.00;;
23531;SDS011;11943;52.270;20.978;2023-07-20T02:26:42;5.80;;;3.00;;
23531;SDS011;11943;52.270;20.978;2023-07-20T02:29:08;4.53;;;2.72;;
23531;SDS011;11943;52.270;20.978;2023-07-20T02:31:36;9.10;;;3.35;;
23531;SDS011;11943;52.270;20.978;2023-07-20T02:36:33;12.60;;;3.05;;
23531;SDS011;11943;52.270;20.978;2023-07-20T02:38:59;4.53;;;3.00;;
23531;SDS011;11943;52.270;20.978;2023-07-20T02:41:27;5.10;;;3.47;;
23531;SDS011;11943;52.270;20.978;2023-07-20T02:43:52;7.22;;;3.42;;
23531;SDS011;11943;52.270;20.978;2023-07-20T02:46:18;6.18;;;2.95;;
23531;SDS011;11943;52.270;20.978;2023-07-20T02:48:43;6.93;;;3.08;;
23531;SDS011;11943;52.270;20.978;2023-07-20T02:51:09;7.80;;;3.50;;
23531;SDS011;11943;52.270;20.978;2023-07-20T02:53:36;6.47;;;3.03;;
23531;SDS011;11943;52.270;20.978;2023-07-20T02:56:01;3.00;;;2.60;;
23531;SDS011;11943;52.270;20.978;2023-07-20T02:58:27;3.88;;;2.63;;
23531;SDS011;11943;52.270;20.978;2023-07-20T03:00:53;5.95;;;2.78;;
23531;SDS011;11943;52.270;20.978;2023-07-20T03:03:18;5.22;;;2.70;;
23531;SDS011;11943;52.270;20.978;2023-07-20T03:05:45;5.93;;;3.05;;
23531;SDS011;11943;52.270;20.978;2023-07-20T03:08:10;5.75;;;3.40;;
23531;SDS011;11943;52.270;20.978;2023-07-20T03:10:39;7.43;;;3.00;;
23531;SDS011;11943;52.270;20.978;2023-07-20T03:13:08;7.68;;;3.22;;
23531;SDS011;11943;52.270;20.978;2023-07-20T03:15:34;4.35;;;3.17;;
23531;SDS011;11943;52.270;20.978;2023-07-20T03:17:59;9.85;;;3.05;;
23531;SDS011;11943;52.270;20.978;2023-07-20T03:20:25;4.53;;;3.03;;
23531;SDS011;11943;52.270;20.978;2023-07-20T03:22:51;6.53;;;3.10;;
23531;SDS011;11943;52.270;20.978;2023-07-20T03:25:16;4.35;;;3.20;;
23531;SDS011;11943;52.270;20.978;2023-07-20T03:27:42;4.05;;;3.15;;
23531;SDS011;11943;52.270;20.978;2023-07-20T03:30:08;4.00;;;3.20;;
23531;SDS011;11943;52.270;20.978;2023-07-20T03:32:34;7.20;;;3.38;;
23531;SDS011;11943;52.270;20.978;2023-07-20T03:35:00;8.60;;;3.15;;
23531;SDS011;11943;52.270;20.978;2023-07-20T03:37:26;8.25;;;3.42;;
23531;SDS011;11943;52.270;20.978;2023-07-20T03:39:51;8.85;;;3.78;;
23531;SDS011;11943;52.270;20.978;2023-07-20T03:42:17;10.93;;;3.75;;
23531;SDS011;11943;52.270;20.978;2023-07-20T03:44:43;6.00;;;3.45;;
23531;SDS011;11943;52.270;20.978;2023-07-20T03:47:08;7.38;;;3.72;;
23531;SDS011;11943;52.270;20.978;2023-07-20T03:49:34;5.82;;;3.78;;
23531;SDS011;11943;52.270;20.978;2023-07-20T03:52:00;5.65;;;3.70;;
23531;SDS011;11943;52.270;20.978;2023-07-20T03:54:28;7.15;;;3.97;;
23531;SDS011;11943;52.270;20.978;2023-07-20T03:56:54;5.80;;;4.18;;
23531;SDS011;11943;52.270;20.978;2023-07-20T03:59:19;5.30;;;3.95;;
23531;SDS011;11943;52.270;20.978;2023-07-20T04:01:45;6.72;;;4.20;;
23531;SDS011;11943;52.270;20.978;2023-07-20T04:04:11;8.57;;;4.75;;
23531;SDS011;11943;52.270;20.978;2023-07-20T04:06:37;11.63;;;4.55;;
23531;SDS011;11943;52.270;20.978;2023-07-20T04:09:03;8.32;;;4.80;;
23531;SDS011;11943;52.270;20.978;2023-07-20T04:11:32;6.95;;;4.80;;
23531;SDS011;11943;52.270;20.978;2023-07-20T04:13:57;9.13;;;5.10;;
23531;SDS011;11943;52.270;20.978;2023-07-20T04:16:23;14.75;;;6.38;;
23531;SDS011;11943;52.270;20.978;2023-07-20T04:18:48;12.27;;;6.28;;
23531;SDS011;11943;52.270;20.978;2023-07-20T04:21:14;10.73;;;6.20;;
23531;SDS011;11943;52.270;20.978;2023-07-20T04:23:40;8.10;;;5.70;;
23531;SDS011;11943;52.270;20.978;2023-07-20T04:26:05;7.80;;;5.43;;
23531;SDS011;11943;52.270;20.978;2023-07-20T04:28:31;11.45;;;6.00;;
23531;SDS011;11943;52.270;20.978;2023-07-20T04:31:09;10.20;;;6.00;;
23531;SDS011;11943;52.270;20.978;2023-07-20T04:33:38;8.70;;;5.97;;
23531;SDS011;11943;52.270;20.978;2023-07-20T04:36:04;8.70;;;6.13;;
23531;SDS011;11943;52.270;20.978;2023-07-20T04:38:30;13.68;;;7.25;;
23531;SDS011;11943;52.270;20.978;2023-07-20T04:40:55;11.35;;;6.90;;
23531;SDS011;11943;52.270;20.978;2023-07-20T04:43:21;8.75;;;5.78;;
23531;SDS011;11943;52.270;20.978;2023-07-20T04:45:47;7.75;;;5.80;;
23531;SDS011;11943;52.270;20.978;2023-07-20T04:48:14;9.07;;;5.93;;
23531;SDS011;11943;52.270;20.978;2023-07-20T04:50:41;7.20;;;5.30;;
23531;SDS011;11943;52.270;20.978;2023-07-20T04:53:08;8.68;;;5.50;;
23531;SDS011;11943;52.270;20.978;2023-07-20T04:55:38;6.68;;;5.30;;
23531;SDS011;11943;52.270;20.978;2023-07-20T04:58:04;9.80;;;5.77;;
23531;SDS011;11943;52.270;20.978;2023-07-20T05:00:31;10.63;;;5.43;;
23531;SDS011;11943;52.270;20.978;2023-07-20T05:02:58;14.00;;;5.80;;
23531;SDS011;11943;52.270;20.978;2023-07-20T05:05:24;6.35;;;5.00;;
23531;SDS011;11943;52.270;20.978;2023-07-20T05:07:50;8.18;;;5.90;;
23531;SDS011;11943;52.270;20.978;2023-07-20T05:10:15;10.95;;;5.70;;
23531;SDS011;11943;52.270;20.978;2023-07-20T05:12:41;8.23;;;5.07;;
23531;SDS011;11943;52.270;20.978;2023-07-20T05:15:07;7.07;;;5.10;;
23531;SDS011;11943;52.270;20.978;2023-07-20T05:17:33;7.88;;;5.55;;
23531;SDS011;11943;52.270;20.978;2023-07-20T05:19:59;12.20;;;5.35;;
23531;SDS011;11943;52.270;20.978;2023-07-20T05:22:24;7.47;;;5.38;;
23531;SDS011;11943;52.270;20.978;2023-07-20T05:24:50;7.78;;;5.32;;
23531;SDS011;11943;52.270;20.978;2023-07-20T05:27:16;8.05;;;5.68;;
23531;SDS011;11943;52.270;20.978;2023-07-20T05:29:45;8.45;;;5.82;;
23531;SDS011;11943;52.270;20.978;2023-07-20T05:32:12;9.73;;;6.07;;
23531;SDS011;11943;52.270;20.978;2023-07-20T05:34:37;9.15;;;6.60;;
23531;SDS011;11943;52.270;20.978;2023-07-20T05:37:03;8.27;;;6.07;;
23531;SDS011;11943;52.270;20.978;2023-07-20T05:39:29;10.48;;;5.55;;
23531;SDS011;11943;52.270;20.978;2023-07-20T05:41:56;10.57;;;6.05;;
23531;SDS011;11943;52.270;20.978;2023-07-20T05:44:22;10.48;;;6.15;;
23531;SDS011;11943;52.270;20.978;2023-07-20T05:46:48;8.30;;;6.00;;
23531;SDS011;11943;52.270;20.978;2023-07-20T05:49:13;9.35;;;6.45;;
23531;SDS011;11943;52.270;20.978;2023-07-20T05:51:39;9.10;;;5.68;;
23531;SDS011;11943;52.270;20.978;2023-07-20T05:54:05;12.57;;;6.93;;
23531;SDS011;11943;52.270;20.978;2023-07-20T05:56:31;11.07;;;6.28;;
23531;SDS011;11943;52.270;20.978;2023-07-20T05:58:57;11.15;;;6.15;;
23531;SDS011;11943;52.270;20.978;2023-07-20T06:01:22;10.05;;;5.72;;
23531;SDS011;11943;52.270;20.978;2023-07-20T06:03:51;8.63;;;6.28;;
23531;SDS011;11943;52.270;20.978;2023-07-20T06:06:17;10.27;;;6.28;;
23531;SDS011;11943;52.270;20.978;2023-07-20T06:08:43;10.90;;;6.30;;
23531;SDS011;11943;52.270;20.978;2023-07-20T06:11:08;9.32;;;5.28;;
23531;SDS011;11943;52.270;20.978;2023-07-20T06:13:34;14.32;;;6.35;;
23531;SDS011;11943;52.270;20.978;2023-07-20T06:16:00;9.30;;;5.53;;
23531;SDS011;11943;52.270;20.978;2023-07-20T06:18:26;8.68;;;5.70;;
23531;SDS011;11943;52.270;20.978;2023-07-20T06:20:52;10.63;;;6.05;;
23531;SDS011;11943;52.270;20.978;2023-07-20T06:23:18;8.45;;;5.35;;
23531;SDS011;11943;52.270;20.978;2023-07-20T06:25:44;10.35;;;5.40;;
23531;SDS011;11943;52.270;20.978;2023-07-20T06:28:10;12.15;;;6.03;;
23531;SDS011;11943;52.270;20.978;2023-07-20T06:30:36;9.05;;;6.35;;
23531;SDS011;11943;52.270;20.978;2023-07-20T06:33:02;9.57;;;5.90;;
23531;SDS011;11943;52.270;20.978;2023-07-20T06:35:27;8.80;;;5.45;;
23531;SDS011;11943;52.270;20.978;2023-07-20T06:37:53;7.65;;;5.80;;
23531;SDS011;11943;52.270;20.978;2023-07-20T06:40:18;9.27;;;6.15;;
23531;SDS011;11943;52.270;20.978;2023-07-20T06:42:44;9.23;;;5.90;;
23531;SDS011;11943;52.270;20.978;2023-07-20T06:45:10;8.93;;;5.35;;
23531;SDS011;11943;52.270;20.978;2023-07-20T06:47:39;13.52;;;6.55;;
23531;SDS011;11943;52.270;20.978;2023-07-20T06:50:06;12.95;;;6.00;;
23531;SDS011;11943;52.270;20.978;2023-07-20T06:52:32;8.17;;;6.07;;
23531;SDS011;11943;52.270;20.978;2023-07-20T06:54:58;6.72;;;5.35;;
23531;SDS011;11943;52.270;20.978;2023-07-20T06:57:23;7.85;;;5.65;;
23531;SDS011;11943;52.270;20.978;2023-07-20T06:59:50;8.32;;;5.70;;
23531;SDS011;11943;52.270;20.978;2023-07-20T07:02:15;8.55;;;5.93;;
23531;SDS011;11943;52.270;20.978;2023-07-20T07:04:41;10.75;;;6.00;;
23531;SDS011;11943;52.270;20.978;2023-07-20T07:07:07;12.25;;;5.95;;
23531;SDS011;11943;52.270;20.978;2023-07-20T07:09:34;6.45;;;5.68;;
23531;SDS011;11943;52.270;20.978;2023-07-20T07:12:00;11.38;;;6.13;;
23531;SDS011;11943;52.270;20.978;2023-07-20T07:14:25;8.60;;;6.43;;
23531;SDS011;11943;52.270;20.978;2023-07-20T07:16:51;10.52;;;5.40;;
23531;SDS011;11943;52.270;20.978;2023-07-20T07:19:17;9.38;;;5.53;;
23531;SDS011;11943;52.270;20.978;2023-07-20T07:21:43;22.35;;;5.35;;
23531;SDS011;11943;52.270;20.978;2023-07-20T07:24:08;6.68;;;5.50;;
23531;SDS011;11943;52.270;20.978;2023-07-20T07:26:35;9.25;;;6.00;;
23531;SDS011;11943;52.270;20.978;2023-07-20T07:29:01;12.07;;;5.93;;
23531;SDS011;11943;52.270;20.978;2023-07-20T07:31:28;12.88;;;5.53;;
23531;SDS011;11943;52.270;20.978;2023-07-20T07:36:21;15.80;;;6.30;;
23531;SDS011;11943;52.270;20.978;2023-07-20T07:38:46;11.65;;;6.32;;
23531;SDS011;11943;52.270;20.978;2023-07-20T07:41:12;8.32;;;5.55;;
23531;SDS011;11943;52.270;20.978;2023-07-20T07:43:38;15.30;;;5.90;;
23531;SDS011;11943;52.270;20.978;2023-07-20T07:46:04;11.70;;;6.00;;
23531;SDS011;11943;52.270;20.978;2023-07-20T07:48:30;10.98;;;6.32;;
23531;SDS011;11943;52.270;20.978;2023-07-20T07:50:56;11.77;;;5.47;;
23531;SDS011;11943;52.270;20.978;2023-07-20T07:53:21;7.07;;;5.32;;
23531;SDS011;11943;52.270;20.978;2023-07-20T07:55:47;12.80;;;5.40;;
23531;SDS011;11943;52.270;20.978;2023-07-20T07:58:13;17.60;;;6.35;;
23531;SDS011;11943;52.270;20.978;2023-07-20T08:00:39;11.13;;;5.75;;
23531;SDS011;11943;52.270;20.978;2023-07-20T08:03:07;7.25;;;5.28;;
23531;SDS011;11943;52.270;20.978;2023-07-20T08:05:33;8.95;;;4.85;;
23531;SDS011;11943;52.270;20.978;2023-07-20T08:08:00;7.75;;;4.85;;
23531;SDS011;11943;52.270;20.978;2023-07-20T08:10:26;8.05;;;5.18;;
23531;SDS011;11943;52.270;20.978;2023-07-20T08:12:51;6.78;;;4.35;;
23531;SDS011;11943;52.270;20.978;2023-07-20T08:15:17;7.03;;;4.75;;
23531;SDS011;11943;52.270;20.978;2023-07-20T08:17:43;8.63;;;4.32;;
23531;SDS011;11943;52.270;20.978;2023-07-20T08:20:09;4.80;;;4.05;;
23531;SDS011;11943;52.270;20.978;2023-07-20T08:22:38;7.60;;;4.32;;
23531;SDS011;11943;52.270;20.978;2023-07-20T08:25:05;7.10;;;4.53;;
23531;SDS011;11943;52.270;20.978;2023-07-20T08:27:31;6.47;;;3.92;;
23531;SDS011;11943;52.270;20.978;2023-07-20T08:29:57;6.97;;;4.32;;
23531;SDS011;11943;52.270;20.978;2023-07-20T08:32:23;7.95;;;4.30;;
23531;SDS011;11943;52.270;20.978;2023-07-20T08:34:48;11.65;;;4.90;;
23531;SDS011;11943;52.270;20.978;2023-07-20T08:37:14;7.88;;;4.82;;
23531;SDS011;11943;52.270;20.978;2023-07-20T08:39:39;10.70;;;5.85;;
23531;SDS011;11943;52.270;20.978;2023-07-20T08:42:05;8.35;;;5.38;;
23531;SDS011;11943;52.270;20.978;2023-07-20T08:44:32;6.65;;;4.88;;
23531;SDS011;11943;52.270;20.978;2023-07-20T08:46:59;7.03;;;5.00;;
23531;SDS011;11943;52.270;20.978;2023-07-20T08:49:28;9.77;;;5.05;;
23531;SDS011;11943;52.270;20.978;2023-07-20T08:51:56;6.40;;;4.90;;
23531;SDS011;11943;52.270;20.978;2023-07-20T08:54:22;6.78;;;5.13;;
23531;SDS011;11943;52.270;20.978;2023-07-20T08:56:49;9.95;;;5.38;;
23531;SDS011;11943;52.270;20.978;2023-07-20T08:59:16;9.20;;;5.80;;
23531;SDS011;11943;52.270;20.978;2023-07-20T09:01:43;10.27;;;5.43;;
23531;SDS011;11943;52.270;20.978;2023-07-20T09:04:10;9.32;;;5.53;;
23531;SDS011;11943;52.270;20.978;2023-07-20T09:06:36;9.95;;;5.78;;
23531;SDS011;11943;52.270;20.978;2023-07-20T09:09:02;8.13;;;4.80;;
23531;SDS011;11943;52.270;20.978;2023-07-20T09:11:28;7.80;;;4.55;;
23531;SDS011;11943;52.270;20.978;2023-07-20T09:14:03;7.15;;;4.80;;
23531;SDS011;11943;52.270;20.978;2023-07-20T09:16:30;8.47;;;4.43;;
23531;SDS011;11943;52.270;20.978;2023-07-20T09:18:57;6.75;;;4.40;;
23531;SDS011;11943;52.270;20.978;2023-07-20T09:21:23;6.60;;;4.38;;
23531;SDS011;11943;52.270;20.978;2023-07-20T09:23:56;5.43;;;3.85;;
23531;SDS011;11943;52.270;20.978;2023-07-20T09:26:22;6.90;;;4.95;;
23531;SDS011;11943;52.270;20.978;2023-07-20T09:28:56;11.23;;;4.70;;
23531;SDS011;11943;52.270;20.978;2023-07-20T09:31:22;10.90;;;5.03;;
23531;SDS011;11943;52.270;20.978;2023-07-20T09:33:48;10.25;;;5.80;;
23531;SDS011;11943;52.270;20.978;2023-07-20T09:36:16;9.60;;;5.72;;
23531;SDS011;11943;52.270;20.978;2023-07-20T09:38:42;7.32;;;4.90;;
23531;SDS011;11943;52.270;20.978;2023-07-20T09:41:14;7.80;;;5.20;;
23531;SDS011;11943;52.270;20.978;2023-07-20T09:43:40;6.40;;;4.82;;
23531;SDS011;11943;52.270;20.978;2023-07-20T09:46:07;7.90;;;4.70;;
23531;SDS011;11943;52.270;20.978;2023-07-20T09:48:33;11.02;;;4.93;;
23531;SDS011;11943;52.270;20.978;2023-07-20T09:50:59;6.05;;;4.20;;
23531;SDS011;11943;52.270;20.978;2023-07-20T09:53:26;9.98;;;5.35;;
23531;SDS011;11943;52.270;20.978;2023-07-20T09:55:52;4.55;;;4.10;;
23531;SDS011;11943;52.270;20.978;2023-07-20T09:58:19;7.30;;;4.97;;
23531;SDS011;11943;52.270;20.978;2023-07-20T10:00:45;4.07;;;2.55;;
23531;SDS011;11943;52.270;20.978;2023-07-20T10:03:16;4.82;;;3.05;;
23531;SDS011;11943;52.270;20.978;2023-07-20T10:05:46;4.18;;;3.25;;
23531;SDS011;11943;52.270;20.978;2023-07-20T10:08:25;5.82;;;3.05;;
23531;SDS011;11943;52.270;20.978;2023-07-20T10:10:52;8.82;;;2.85;;
23531;SDS011;11943;52.270;20.978;2023-07-20T10:13:18;5.45;;;3.00;;
23531;SDS011;11943;52.270;20.978;2023-07-20T10:15:50;5.90;;;3.33;;
23531;SDS011;11943;52.270;20.978;2023-07-20T10:20:49;3.88;;;3.00;;
23531;SDS011;11943;52.270;20.978;2023-07-20T10:23:16;7.57;;;3.20;;
23531;SDS011;11943;52.270;20.978;2023-07-20T10:25:42;6.05;;;3.03;;
23531;SDS011;11943;52.270;20.978;2023-07-20T10:28:10;5.38;;;2.70;;
23531;SDS011;11943;52.270;20.978;2023-07-20T10:30:36;3.35;;;2.55;;
23531;SDS011;11943;52.270;20.978;2023-07-20T10:33:03;2.97;;;2.53;;
23531;SDS011;11943;52.270;20.978;2023-07-20T10:35:30;5.80;;;2.30;;
23531;SDS011;11943;52.270;20.978;2023-07-20T10:38:04;3.70;;;2.50;;
23531;SDS011;11943;52.270;20.978;2023-07-20T10:40:38;4.03;;;2.45;;
23531;SDS011;11943;52.270;20.978;2023-07-20T10:43:04;3.42;;;2.55;;
23531;SDS011;11943;52.270;20.978;2023-07-20T10:45:35;3.03;;;2.70;;
23531;SDS011;11943;52.270;20.978;2023-07-20T10:48:04;4.85;;;2.80;;
23531;SDS011;11943;52.270;20.978;2023-07-20T10:50:32;5.40;;;2.63;;
23531;SDS011;11943;52.270;20.978;2023-07-20T10:53:19;2.90;;;2.60;;
23531;SDS011;11943;52.270;20.978;2023-07-20T10:55:45;2.80;;;2.10;;
23531;SDS011;11943;52.270;20.978;2023-07-20T10:58:14;3.15;;;2.67;;
23531;SDS011;11943;52.270;20.978;2023-07-20T11:03:29;4.22;;;2.60;;
23531;SDS011;11943;52.270;20.978;2023-07-20T11:05:58;4.57;;;2.58;;
23531;SDS011;11943;52.270;20.978;2023-07-20T11:11:23;4.70;;;2.60;;
23531;SDS011;11943;52.270;20.978;2023-07-20T11:13:53;3.33;;;2.60;;
23531;SDS011;11943;52.270;20.978;2023-07-20T11:16:31;4.00;;;2.40;;
23531;SDS011;11943;52.270;20.978;2023-07-20T11:19:02;3.20;;;2.70;;
23531;SDS011;11943;52.270;20.978;2023-07-20T11:21:28;3.70;;;3.07;;
23531;SDS011;11943;52.270;20.978;2023-07-20T11:23:59;2.50;;;2.30;;
23531;SDS011;11943;52.270;20.978;2023-07-20T11:26:28;3.63;;;2.50;;
23531;SDS011;11943;52.270;20.978;2023-07-20T11:28:54;4.28;;;2.25;;
23531;SDS011;11943;52.270;20.978;2023-07-20T11:31:19;8.05;;;2.40;;
23531;SDS011;11943;52.270;20.978;2023-07-20T11:33:45;2.35;;;2.10;;
23531;SDS011;11943;52.270;20.978;2023-07-20T11:36:11;3.40;;;2.17;;
23531;SDS011;11943;52.270;20.978;2023-07-20T11:38:39;2.55;;;1.90;;
23531;SDS011;11943;52.270;20.978;2023-07-20T11:41:08;2.20;;;2.00;;
23531;SDS011;11943;52.270;20.978;2023-07-20T11:43:34;2.30;;;2.03;;
23531;SDS011;11943;52.270;20.978;2023-07-20T11:46:04;2.88;;;2.10;;
23531;SDS011;11943;52.270;20.978;2023-07-20T11:48:30;2.28;;;2.05;;
23531;SDS011;11943;52.270;20.978;2023-07-20T11:50:56;2.72;;;1.92;;
23531;SDS011;11943;52.270;20.978;2023-07-20T11:53:21;4.18;;;1.80;;
23531;SDS011;11943;52.270;20.978;2023-07-20T11:55:49;1.80;;;1.70;;
23531;SDS011;11943;52.270;20.978;2023-07-20T11:58:15;2.85;;;1.67;;
23531;SDS011;11943;52.270;20.978;2023-07-20T12:00:42;1.43;;;1.30;;
23531;SDS011;11943;52.270;20.978;2023-07-20T12:05:36;2.65;;;1.60;;
23531;SDS011;11943;52.270;20.978;2023-07-20T12:08:03;2.22;;;1.85;;
23531;SDS011;11943;52.270;20.978;2023-07-20T12:10:29;2.67;;;1.85;;
23531;SDS011;11943;52.270;20.978;2023-07-20T12:13:00;2.08;;;1.65;;
23531;SDS011;11943;52.270;20.978;2023-07-20T12:15:30;2.33;;;1.67;;
23531;SDS011;11943;52.270;20.978;2023-07-20T12:17:57;2.55;;;1.70;;
23531;SDS011;11943;52.270;20.978;2023-07-20T12:20:27;3.47;;;1.70;;
23531;SDS011;11943;52.270;20.978;2023-07-20T12:23:04;2.00;;;1.67;;
23531;SDS011;11943;52.270;20.978;2023-07-20T12:28:09;3.78;;;1.80;;
23531;SDS011;11943;52.270;20.978;2023-07-20T12:30:53;2.97;;;1.83;;
23531;SDS011;11943;52.270;20.978;2023-07-20T12:33:21;6.13;;;1.60;;
23531;SDS011;11943;52.270;20.978;2023-07-20T12:35:47;2.53;;;1.90;;
23531;SDS011;11943;52.270;20.978;2023-07-20T12:38:14;2.10;;;1.73;;
23531;SDS011;11943;52.270;20.978;2023-07-20T12:40:41;3.08;;;2.00;;
23531;SDS011;11943;52.270;20.978;2023-07-20T12:43:06;1.90;;;1.73;;
23531;SDS011;11943;52.270;20.978;2023-07-20T12:45:32;4.45;;;1.85;;
23531;SDS011;11943;52.270;20.978;2023-07-20T12:47:58;1.50;;;1.40;;
23531;SDS011;11943;52.270;20.978;2023-07-20T12:50:24;3.58;;;1.92;;
23531;SDS011;11943;52.270;20.978;2023-07-20T12:52:49;3.55;;;1.70;;
23531;SDS011;11943;52.270;20.978;2023-07-20T12:55:15;3.10;;;1.80;;
23531;SDS011;11943;52.270;20.978;2023-07-20T12:57:41;1.65;;;1.55;;
23531;SDS011;11943;52.270;20.978;2023-07-20T13:00:08;4.10;;;1.75;;
23531;SDS011;11943;52.270;20.978;2023-07-20T13:02:35;3.22;;;1.90;;
23531;SDS011;11943;52.270;20.978;2023-07-20T13:05:03;1.65;;;1.55;;
23531;SDS011;11943;52.270;20.978;2023-07-20T13:07:35;2.15;;;1.63;;
23531;SDS011;11943;52.270;20.978;2023-07-20T13:10:02;3.75;;;1.75;;
23531;SDS011;11943;52.270;20.978;2023-07-20T13:12:29;2.58;;;1.77;;
23531;SDS011;11943;52.270;20.978;2023-07-20T13:17:25;2.83;;;1.60;;
23531;SDS011;11943;52.270;20.978;2023-07-20T13:19:54;1.80;;;1.60;;
23531;SDS011;11943;52.270;20.978;2023-07-20T13:22:20;3.00;;;2.00;;
23531;SDS011;11943;52.270;20.978;2023-07-20T13:24:46;5.18;;;1.90;;
23531;SDS011;11943;52.270;20.978;2023-07-20T13:27:14;4.97;;;1.88;;
23531;SDS011;11943;52.270;20.978;2023-07-20T13:29:40;4.70;;;2.05;;
23531;SDS011;11943;52.270;20.978;2023-07-20T13:32:06;2.95;;;2.40;;
23531;SDS011;11943;52.270;20.978;2023-07-20T13:34:33;2.72;;;2.28;;
23531;SDS011;11943;52.270;20.978;2023-07-20T13:36:59;3.28;;;1.63;;
23531;SDS011;11943;52.270;20.978;2023-07-20T13:39:25;2.35;;;1.63;;
23531;SDS011;11943;52.270;20.978;2023-07-20T13:41:52;2.63;;;2.13;;
23531;SDS011;11943;52.270;20.978;2023-07-20T13:44:19;5.43;;;2.50;;
23531;SDS011;11943;52.270;20.978;2023-07-20T13:46:48;3.38;;;1.98;;
23531;SDS011;11943;52.270;20.978;2023-07-20T13:49:15;3.07;;;2.10;;
23531;SDS011;11943;52.270;20.978;2023-07-20T13:51:41;4.82;;;2.13;;
23531;SDS011;11943;52.270;20.978;2023-07-20T13:54:07;2.67;;;2.38;;
23531;SDS011;11943;52.270;20.978;2023-07-20T13:56:33;2.97;;;2.42;;
23531;SDS011;11943;52.270;20.978;2023-07-20T13:58:59;3.97;;;2.70;;
23531;SDS011;11943;52.270;20.978;2023-07-20T14:01:25;5.35;;;2.60;;
23531;SDS011;11943;52.270;20.978;2023-07-20T14:03:53;4.50;;;2.90;;
23531;SDS011;11943;52.270;20.978;2023-07-20T14:06:19;3.75;;;2.38;;
23531;SDS011;11943;52.270;20.978;2023-07-20T14:08:45;6.55;;;2.72;;
23531;SDS011;11943;52.270;20.978;2023-07-20T14:11:12;7.00;;;2.63;;
23531;SDS011;11943;52.270;20.978;2023-07-20T14:13:38;3.78;;;2.55;;
23531;SDS011;11943;52.270;20.978;2023-07-20T14:16:04;5.85;;;2.75;;
23531;SDS011;11943;52.270;20.978;2023-07-20T14:18:30;4.65;;;2.95;;
23531;SDS011;11943;52.270;20.978;2023-07-20T14:20:55;3.85;;;2.47;;
23531;SDS011;11943;52.270;20.978;2023-07-20T14:23:21;3.72;;;2.22;;
23531;SDS011;11943;52.270;20.978;2023-07-20T14:25:47;2.97;;;2.40;;
23531;SDS011;11943;52.270;20.978;2023-07-20T14:28:13;2.60;;;2.40;;
23531;SDS011;11943;52.270;20.978;2023-07-20T14:30:39;2.80;;;2.30;;
23531;SDS011;11943;52.270;20.978;2023-07-20T14:33:06;5.00;;;2.22;;
23531;SDS011;11943;52.270;20.978;2023-07-20T14:35:32;2.58;;;1.95;;
23531;SDS011;11943;52.270;20.978;2023-07-20T14:37:59;2.20;;;2.00;;
23531;SDS011;11943;52.270;20.978;2023-07-20T14:40:24;2.70;;;1.50;;
23531;SDS011;11943;52.270;20.978;2023-07-20T14:42:50;1.88;;;1.35;;
23531;SDS011;11943;52.270;20.978;2023-07-20T14:45:18;1.50;;;1.40;;
23531;SDS011;11943;52.270;20.978;2023-07-20T14:47:44;1.60;;;1.27;;
23531;SDS011;11943;52.270;20.978;2023-07-20T14:50:10;1.67;;;1.30;;
23531;SDS011;11943;52.270;20.978;2023-07-20T14:52:36;4.10;;;1.30;;
23531;SDS011;11943;52.270;20.978;2023-07-20T14:55:02;1.20;;;1.10;;
23531;SDS011;11943;52.270;20.978;2023-07-20T14:57:28;2.42;;;1.30;;
23531;SDS011;11943;52.270;20.978;2023-07-20T14:59:53;1.30;;;1.20;;
23531;SDS011;11943;52.270;20.978;2023-07-20T15:02:19;2.38;;;1.23;;